sensor_id;sensor_type;location;lat;lon;timestamp;pressure;altitude;pressure_sealevel;temperature
68440;BMP180;55421;51.600;5.718;2022-12-11T00:01:30;214704.20;;;0.50
68440;BMP180;55421;51.600;5.718;2022-12-11T00:03:56;214722.59;;;0.58
68440;BMP180;55421;51.600;5.718;2022-12-11T00:06:23;214726.20;;;0.58
68440;BMP180;55421;51.600;5.718;2022-12-11T00:08:52;214721.80;;;0.54
68440;BMP180;55421;51.600;5.718;2022-12-11T00:11:21;214704.59;;;0.50
68440;BMP180;55421;51.600;5.718;2022-12-11T00:13:49;214678.59;;;0.50
68440;BMP180;55421;51.600;5.718;2022-12-11T00:16:15;214677.41;;;0.50
68440;BMP180;55421;51.600;5.718;2022-12-11T00:18:42;214684.20;;;0.50
68440;BMP180;55421;51.600;5.718;2022-12-11T00:21:13;214704.59;;;0.50
68440;BMP180;55421;51.600;5.718;2022-12-11T00:23:40;214683.00;;;0.50
68440;BMP180;55421;51.600;5.718;2022-12-11T00:26:12;214678.59;;;0.50
68440;BMP180;55421;51.600;5.718;2022-12-11T00:28:39;214662.20;;;0.44
68440;BMP180;55421;51.600;5.718;2022-12-11T00:31:08;214662.20;;;0.40
68440;BMP180;55421;51.600;5.718;2022-12-11T00:33:36;214663.41;;;0.40
68440;BMP180;55421;51.600;5.718;2022-12-11T00:36:03;214684.20;;;0.50
68440;BMP180;55421;51.600;5.718;2022-12-11T00:38:29;214688.59;;;0.50
68440;BMP180;55421;51.600;5.718;2022-12-11T00:40:59;214691.41;;;0.50
68440;BMP180;55421;51.600;5.718;2022-12-11T00:43:25;214684.20;;;0.50
68440;BMP180;55421;51.600;5.718;2022-12-11T00:45:52;214667.00;;;0.44
68440;BMP180;55421;51.600;5.718;2022-12-11T00:48:18;214671.41;;;0.48
68440;BMP180;55421;51.600;5.718;2022-12-11T00:50:45;214655.41;;;0.40
68440;BMP180;55421;51.600;5.718;2022-12-11T00:53:12;214654.00;;;0.42
68440;BMP180;55421;51.600;5.718;2022-12-11T00:55:41;214679.80;;;0.50
68440;BMP180;55421;51.600;5.718;2022-12-11T00:58:09;214704.59;;;0.50
68440;BMP180;55421;51.600;5.718;2022-12-11T01:00:37;214707.41;;;0.50
68440;BMP180;55421;51.600;5.718;2022-12-11T01:03:06;214713.00;;;0.52
68440;BMP180;55421;51.600;5.718;2022-12-11T01:05:33;214727.00;;;0.58
68440;BMP180;55421;51.600;5.718;2022-12-11T01:07:59;214721.80;;;0.56
68440;BMP180;55421;51.600;5.718;2022-12-11T01:10:26;214728.20;;;0.56
68440;BMP180;55421;51.600;5.718;2022-12-11T01:13:04;214749.00;;;0.60
68440;BMP180;55421;51.600;5.718;2022-12-11T01:15:41;214776.59;;;0.64
68440;BMP180;55421;51.600;5.718;2022-12-11T01:18:13;214807.20;;;0.70
68440;BMP180;55421;51.600;5.718;2022-12-11T01:20:41;214814.00;;;0.70
68440;BMP180;55421;51.600;5.718;2022-12-11T01:23:12;214795.41;;;0.70
68440;BMP180;55421;51.600;5.718;2022-12-11T01:25:39;214772.20;;;0.62
68440;BMP180;55421;51.600;5.718;2022-12-11T01:28:07;214766.59;;;0.60
68440;BMP180;55421;51.600;5.718;2022-12-11T01:30:34;214775.41;;;0.60
68440;BMP180;55421;51.600;5.718;2022-12-11T01:33:02;214775.41;;;0.64
68440;BMP180;55421;51.600;5.718;2022-12-11T01:35:28;214784.80;;;0.70
68440;BMP180;55421;51.600;5.718;2022-12-11T01:37:55;214805.59;;;0.70
68440;BMP180;55421;51.600;5.718;2022-12-11T01:40:22;214811.20;;;0.70
68440;BMP180;55421;51.600;5.718;2022-12-11T01:42:49;214808.80;;;0.70
68440;BMP180;55421;51.600;5.718;2022-12-11T01:50:33;214760.59;;;0.60
68440;BMP180;55421;51.600;5.718;2022-12-11T01:53:02;214770.59;;;0.62
68440;BMP180;55421;51.600;5.718;2022-12-11T01:55:32;214766.59;;;0.60
68440;BMP180;55421;51.600;5.718;2022-12-11T01:58:01;214769.00;;;0.62
68440;BMP180;55421;51.600;5.718;2022-12-11T02:00:28;214761.80;;;0.60
68440;BMP180;55421;51.600;5.718;2022-12-11T02:02:54;214750.59;;;0.60
68440;BMP180;55421;51.600;5.718;2022-12-11T02:05:21;214735.00;;;0.60
68440;BMP180;55421;51.600;5.718;2022-12-11T02:07:52;214729.80;;;0.58
68440;BMP180;55421;51.600;5.718;2022-12-11T02:10:30;214739.00;;;0.60
68440;BMP180;55421;51.600;5.718;2022-12-11T02:13:24;214760.20;;;0.60
68440;BMP180;55421;51.600;5.718;2022-12-11T02:16:05;214807.59;;;0.70
68440;BMP180;55421;51.600;5.718;2022-12-11T02:19:02;214823.20;;;0.70
68440;BMP180;55421;51.600;5.718;2022-12-11T02:21:42;214817.80;;;0.70
68440;BMP180;55421;51.600;5.718;2022-12-11T02:24:45;214801.59;;;0.70
68440;BMP180;55421;51.600;5.718;2022-12-11T02:27:35;214769.41;;;0.60
68440;BMP180;55421;51.600;5.718;2022-12-11T02:30:10;214759.00;;;0.60
68440;BMP180;55421;51.600;5.718;2022-12-11T02:35:30;214794.00;;;0.70
68440;BMP180;55421;51.600;5.718;2022-12-11T02:38:04;214825.80;;;0.70
68440;BMP180;55421;51.600;5.718;2022-12-11T02:40:36;214812.80;;;0.70
68440;BMP180;55421;51.600;5.718;2022-12-11T02:43:09;214806.00;;;0.70
68440;BMP180;55421;51.600;5.718;2022-12-11T02:45:39;214807.20;;;0.70
68440;BMP180;55421;51.600;5.718;2022-12-11T02:48:09;214799.41;;;0.70
68440;BMP180;55421;51.600;5.718;2022-12-11T02:50:44;214814.00;;;0.70
68440;BMP180;55421;51.600;5.718;2022-12-11T02:53:15;214855.80;;;0.80
68440;BMP180;55421;51.600;5.718;2022-12-11T02:55:44;214872.20;;;0.80
68440;BMP180;55421;51.600;5.718;2022-12-11T02:58:19;214879.41;;;0.80
68440;BMP180;55421;51.600;5.718;2022-12-11T03:00:47;214876.20;;;0.80
68440;BMP180;55421;51.600;5.718;2022-12-11T03:03:14;214875.00;;;0.80
68440;BMP180;55421;51.600;5.718;2022-12-11T03:05:42;214859.00;;;0.80
68440;BMP180;55421;51.600;5.718;2022-12-11T03:08:09;214861.80;;;0.80
68440;BMP180;55421;51.600;5.718;2022-12-11T03:10:36;214883.41;;;0.80
68440;BMP180;55421;51.600;5.718;2022-12-11T03:13:04;214905.80;;;0.90
68440;BMP180;55421;51.600;5.718;2022-12-11T03:16:18;214930.00;;;0.90
68440;BMP180;55421;51.600;5.718;2022-12-11T03:19:14;214932.00;;;0.90
68440;BMP180;55421;51.600;5.718;2022-12-11T03:22:09;214922.20;;;0.90
68440;BMP180;55421;51.600;5.718;2022-12-11T03:24:44;214903.00;;;0.90
68440;BMP180;55421;51.600;5.718;2022-12-11T03:27:26;214900.20;;;0.90
68440;BMP180;55421;51.600;5.718;2022-12-11T03:32:35;214934.20;;;0.90
68440;BMP180;55421;51.600;5.718;2022-12-11T03:35:17;214932.59;;;0.90
68440;BMP180;55421;51.600;5.718;2022-12-11T03:37:47;214938.41;;;0.92
68440;BMP180;55421;51.600;5.718;2022-12-11T03:40:18;214935.20;;;0.90
68440;BMP180;55421;51.600;5.718;2022-12-11T03:42:51;214929.00;;;0.90
68440;BMP180;55421;51.600;5.718;2022-12-11T03:45:21;214925.41;;;0.90
68440;BMP180;55421;51.600;5.718;2022-12-11T03:47:52;214929.00;;;0.90
68440;BMP180;55421;51.600;5.718;2022-12-11T03:50:22;214936.80;;;0.90
68440;BMP180;55421;51.600;5.718;2022-12-11T03:52:51;214969.20;;;1.00
68440;BMP180;55421;51.600;5.718;2022-12-11T03:55:20;214978.80;;;1.00
68440;BMP180;55421;51.600;5.718;2022-12-11T03:57:48;214970.80;;;1.00
68440;BMP180;55421;51.600;5.718;2022-12-11T04:00:18;214938.41;;;0.90
68440;BMP180;55421;51.600;5.718;2022-12-11T04:02:46;214925.59;;;0.90
68440;BMP180;55421;51.600;5.718;2022-12-11T04:05:33;214904.20;;;0.90
68440;BMP180;55421;51.600;5.718;2022-12-11T04:07:59;214885.00;;;0.80
68440;BMP180;55421;51.600;5.718;2022-12-11T04:10:26;214879.80;;;0.80
68440;BMP180;55421;51.600;5.718;2022-12-11T04:12:53;214887.41;;;0.82
68440;BMP180;55421;51.600;5.718;2022-12-11T04:15:19;214905.80;;;0.88
68440;BMP180;55421;51.600;5.718;2022-12-11T04:17:46;214919.80;;;0.90
68440;BMP180;55421;51.600;5.718;2022-12-11T04:20:32;214927.20;;;0.90
68440;BMP180;55421;51.600;5.718;2022-12-11T04:23:18;214921.00;;;0.90
68440;BMP180;55421;51.600;5.718;2022-12-11T04:26:11;214911.41;;;0.90
68440;BMP180;55421;51.600;5.718;2022-12-11T04:28:38;214901.41;;;0.90
68440;BMP180;55421;51.600;5.718;2022-12-11T04:31:10;214916.59;;;0.90
68440;BMP180;55421;51.600;5.718;2022-12-11T04:33:37;214935.20;;;0.90
68440;BMP180;55421;51.600;5.718;2022-12-11T04:36:04;214935.80;;;0.90
68440;BMP180;55421;51.600;5.718;2022-12-11T04:38:31;214930.00;;;0.90
68440;BMP180;55421;51.600;5.718;2022-12-11T04:41:00;214907.41;;;0.90
68440;BMP180;55421;51.600;5.718;2022-12-11T04:43:27;214886.20;;;0.80
68440;BMP180;55421;51.600;5.718;2022-12-11T04:46:03;214861.41;;;0.80
68440;BMP180;55421;51.600;5.718;2022-12-11T04:48:29;214849.00;;;0.78
68440;BMP180;55421;51.600;5.718;2022-12-11T04:50:56;214860.20;;;0.80
68440;BMP180;55421;51.600;5.718;2022-12-11T04:53:24;214880.59;;;0.80
68440;BMP180;55421;51.600;5.718;2022-12-11T04:55:51;214879.41;;;0.80
68440;BMP180;55421;51.600;5.718;2022-12-11T04:58:17;214872.20;;;0.80
68440;BMP180;55421;51.600;5.718;2022-12-11T05:00:44;214861.00;;;0.80
68440;BMP180;55421;51.600;5.718;2022-12-11T05:03:11;214861.80;;;0.80
68440;BMP180;55421;51.600;5.718;2022-12-11T05:05:38;214854.59;;;0.80
68440;BMP180;55421;51.600;5.718;2022-12-11T05:08:05;214845.00;;;0.80
68440;BMP180;55421;51.600;5.718;2022-12-11T05:10:31;214859.80;;;0.80
68440;BMP180;55421;51.600;5.718;2022-12-11T05:12:58;214864.59;;;0.80
68440;BMP180;55421;51.600;5.718;2022-12-11T05:15:24;214882.20;;;0.80
68440;BMP180;55421;51.600;5.718;2022-12-11T05:17:51;214893.41;;;0.84
68440;BMP180;55421;51.600;5.718;2022-12-11T05:20:17;214908.59;;;0.90
68440;BMP180;55421;51.600;5.718;2022-12-11T05:22:44;214923.00;;;0.90
68440;BMP180;55421;51.600;5.718;2022-12-11T05:25:10;214919.80;;;0.90
68440;BMP180;55421;51.600;5.718;2022-12-11T05:27:37;214928.59;;;0.90
68440;BMP180;55421;51.600;5.718;2022-12-11T05:30:05;214941.20;;;0.92
68440;BMP180;55421;51.600;5.718;2022-12-11T05:32:32;214960.80;;;1.00
68440;BMP180;55421;51.600;5.718;2022-12-11T05:34:58;214990.00;;;1.00
68440;BMP180;55421;51.600;5.718;2022-12-11T05:37:25;215002.41;;;1.06
68440;BMP180;55421;51.600;5.718;2022-12-11T05:39:52;215005.20;;;1.08
68440;BMP180;55421;51.600;5.718;2022-12-11T05:42:18;214994.41;;;1.00
68440;BMP180;55421;51.600;5.718;2022-12-11T05:44:45;214983.20;;;1.00
68440;BMP180;55421;51.600;5.718;2022-12-11T05:47:12;214969.20;;;1.00
68440;BMP180;55421;51.600;5.718;2022-12-11T05:49:38;214968.00;;;1.00
68440;BMP180;55421;51.600;5.718;2022-12-11T05:52:05;214970.80;;;1.00
68440;BMP180;55421;51.600;5.718;2022-12-11T05:54:35;214968.00;;;1.00
68440;BMP180;55421;51.600;5.718;2022-12-11T05:57:01;214964.80;;;1.00
68440;BMP180;55421;51.600;5.718;2022-12-11T05:59:28;214959.59;;;1.00
68440;BMP180;55421;51.600;5.718;2022-12-11T06:01:54;214959.59;;;1.00
68440;BMP180;55421;51.600;5.718;2022-12-11T06:04:21;214940.00;;;0.94
68440;BMP180;55421;51.600;5.718;2022-12-11T06:06:47;214930.59;;;0.90
68440;BMP180;55421;51.600;5.718;2022-12-11T06:09:15;214907.00;;;0.90
68440;BMP180;55421;51.600;5.718;2022-12-11T06:11:42;214876.20;;;0.80
68440;BMP180;55421;51.600;5.718;2022-12-11T06:14:10;214878.20;;;0.80
68440;BMP180;55421;51.600;5.718;2022-12-11T06:16:37;214883.80;;;0.80
68440;BMP180;55421;51.600;5.718;2022-12-11T06:19:03;214893.80;;;0.84
68440;BMP180;55421;51.600;5.718;2022-12-11T06:21:32;214893.41;;;0.84
68440;BMP180;55421;51.600;5.718;2022-12-11T06:24:02;214869.00;;;0.80
68440;BMP180;55421;51.600;5.718;2022-12-11T06:26:29;214853.00;;;0.80
68440;BMP180;55421;51.600;5.718;2022-12-11T06:28:57;214814.00;;;0.70
68440;BMP180;55421;51.600;5.718;2022-12-11T06:31:24;214783.59;;;0.70
68440;BMP180;55421;51.600;5.718;2022-12-11T06:33:50;214771.00;;;0.64
68440;BMP180;55421;51.600;5.718;2022-12-11T06:36:21;214763.41;;;0.60
68440;BMP180;55421;51.600;5.718;2022-12-11T06:38:48;214759.00;;;0.60
68440;BMP180;55421;51.600;5.718;2022-12-11T06:41:16;214783.59;;;0.70
68440;BMP180;55421;51.600;5.718;2022-12-11T06:43:44;214783.59;;;0.70
68440;BMP180;55421;51.600;5.718;2022-12-11T06:46:17;214778.20;;;0.66
68440;BMP180;55421;51.600;5.718;2022-12-11T06:48:46;214772.59;;;0.60
68440;BMP180;55421;51.600;5.718;2022-12-11T06:51:19;214760.59;;;0.60
68440;BMP180;55421;51.600;5.718;2022-12-11T06:53:56;214747.41;;;0.60
68440;BMP180;55421;51.600;5.718;2022-12-11T06:56:24;214739.80;;;0.60
68440;BMP180;55421;51.600;5.718;2022-12-11T06:58:51;214731.00;;;0.60
68440;BMP180;55421;51.600;5.718;2022-12-11T07:01:25;214723.00;;;0.60
68440;BMP180;55421;51.600;5.718;2022-12-11T07:03:54;214727.41;;;0.56
68440;BMP180;55421;51.600;5.718;2022-12-11T07:06:21;214738.59;;;0.60
68440;BMP180;55421;51.600;5.718;2022-12-11T07:08:49;214751.41;;;0.60
68440;BMP180;55421;51.600;5.718;2022-12-11T07:11:18;214763.41;;;0.60
68440;BMP180;55421;51.600;5.718;2022-12-11T07:13:46;214798.00;;;0.70
68440;BMP180;55421;51.600;5.718;2022-12-11T07:16:15;214820.41;;;0.70
68440;BMP180;55421;51.600;5.718;2022-12-11T07:18:48;214834.59;;;0.70
68440;BMP180;55421;51.600;5.718;2022-12-11T07:21:15;214834.59;;;0.70
68440;BMP180;55421;51.600;5.718;2022-12-11T07:23:44;214817.80;;;0.70
68440;BMP180;55421;51.600;5.718;2022-12-11T07:26:14;214811.20;;;0.70
68440;BMP180;55421;51.600;5.718;2022-12-11T07:28:41;214801.80;;;0.70
68440;BMP180;55421;51.600;5.718;2022-12-11T07:31:13;214789.00;;;0.70
68440;BMP180;55421;51.600;5.718;2022-12-11T07:33:42;214808.80;;;0.70
68440;BMP180;55421;51.600;5.718;2022-12-11T07:36:11;214820.41;;;0.70
68440;BMP180;55421;51.600;5.718;2022-12-11T07:38:39;214849.41;;;0.80
68440;BMP180;55421;51.600;5.718;2022-12-11T07:41:12;214861.41;;;0.80
68440;BMP180;55421;51.600;5.718;2022-12-11T07:43:40;214878.20;;;0.80
68440;BMP180;55421;51.600;5.718;2022-12-11T07:46:12;214885.00;;;0.80
68440;BMP180;55421;51.600;5.718;2022-12-11T07:48:41;214875.41;;;0.80
68440;BMP180;55421;51.600;5.718;2022-12-11T07:51:14;214866.20;;;0.80
68440;BMP180;55421;51.600;5.718;2022-12-11T07:53:47;214863.00;;;0.80
68440;BMP180;55421;51.600;5.718;2022-12-11T07:56:16;214892.20;;;0.80
68440;BMP180;55421;51.600;5.718;2022-12-11T07:58:44;214904.59;;;0.90
68440;BMP180;55421;51.600;5.718;2022-12-11T08:01:19;214927.20;;;0.90
68440;BMP180;55421;51.600;5.718;2022-12-11T08:03:47;214932.59;;;0.90
68440;BMP180;55421;51.600;5.718;2022-12-11T08:06:14;214933.59;;;0.90
68440;BMP180;55421;51.600;5.718;2022-12-11T08:08:41;214948.41;;;0.94
68440;BMP180;55421;51.600;5.718;2022-12-11T08:11:11;214938.41;;;0.90
68440;BMP180;55421;51.600;5.718;2022-12-11T08:13:39;214924.59;;;0.90
68440;BMP180;55421;51.600;5.718;2022-12-11T08:16:10;214930.59;;;0.90
68440;BMP180;55421;51.600;5.718;2022-12-11T08:18:38;214929.00;;;0.90
68440;BMP180;55421;51.600;5.718;2022-12-11T08:21:13;214921.41;;;0.90
68440;BMP180;55421;51.600;5.718;2022-12-11T08:23:40;214922.59;;;0.90
68440;BMP180;55421;51.600;5.718;2022-12-11T08:26:11;214925.80;;;0.90
68440;BMP180;55421;51.600;5.718;2022-12-11T08:28:38;214948.41;;;0.92
68440;BMP180;55421;51.600;5.718;2022-12-11T08:31:07;214980.41;;;1.00
68440;BMP180;55421;51.600;5.718;2022-12-11T08:33:36;215005.20;;;1.10
68440;BMP180;55421;51.600;5.718;2022-12-11T08:36:08;215002.41;;;1.06
68440;BMP180;55421;51.600;5.718;2022-12-11T08:38:36;215000.41;;;1.04
68440;BMP180;55421;51.600;5.718;2022-12-11T08:41:21;215021.59;;;1.10
68440;BMP180;55421;51.600;5.718;2022-12-11T08:43:49;215022.80;;;1.10
68440;BMP180;55421;51.600;5.718;2022-12-11T08:46:23;215020.41;;;1.10
68440;BMP180;55421;51.600;5.718;2022-12-11T08:48:50;215019.20;;;1.10
68440;BMP180;55421;51.600;5.718;2022-12-11T08:51:22;215016.41;;;1.10
68440;BMP180;55421;51.600;5.718;2022-12-11T08:53:49;215025.59;;;1.10
68440;BMP180;55421;51.600;5.718;2022-12-11T08:56:19;215040.00;;;1.10
68440;BMP180;55421;51.600;5.718;2022-12-11T08:58:47;215068.00;;;1.18
68440;BMP180;55421;51.600;5.718;2022-12-11T09:01:21;215104.00;;;1.20
68440;BMP180;55421;51.600;5.718;2022-12-11T09:03:50;215110.80;;;1.26
68440;BMP180;55421;51.600;5.718;2022-12-11T09:06:21;215112.41;;;1.22
68440;BMP180;55421;51.600;5.718;2022-12-11T09:08:50;215106.41;;;1.20
68440;BMP180;55421;51.600;5.718;2022-12-11T09:11:21;215093.20;;;1.20
68440;BMP180;55421;51.600;5.718;2022-12-11T09:13:49;215070.59;;;1.20
68440;BMP180;55421;51.600;5.718;2022-12-11T09:16:22;215067.00;;;1.18
68440;BMP180;55421;51.600;5.718;2022-12-11T09:18:51;215052.80;;;1.10
68440;BMP180;55421;51.600;5.718;2022-12-11T09:21:23;215046.41;;;1.10
68440;BMP180;55421;51.600;5.718;2022-12-11T09:23:59;215054.80;;;1.12
68440;BMP180;55421;51.600;5.718;2022-12-11T09:26:28;215097.59;;;1.20
68440;BMP180;55421;51.600;5.718;2022-12-11T09:28:56;215134.41;;;1.30
68440;BMP180;55421;51.600;5.718;2022-12-11T09:31:29;215178.00;;;1.36
68440;BMP180;55421;51.600;5.718;2022-12-11T09:34:03;215190.41;;;1.40
68440;BMP180;55421;51.600;5.718;2022-12-11T09:36:30;215187.20;;;1.40
68440;BMP180;55421;51.600;5.718;2022-12-11T09:39:06;215172.00;;;1.34
68440;BMP180;55421;51.600;5.718;2022-12-11T09:41:48;215164.80;;;1.30
68440;BMP180;55421;51.600;5.718;2022-12-11T09:44:30;215143.59;;;1.30
68440;BMP180;55421;51.600;5.718;2022-12-11T09:46:58;215131.59;;;1.30
68440;BMP180;55421;51.600;5.718;2022-12-11T09:49:39;215114.00;;;1.28
68440;BMP180;55421;51.600;5.718;2022-12-11T09:52:17;215133.20;;;1.30
68440;BMP180;55421;51.600;5.718;2022-12-11T09:54:53;215180.80;;;1.40
68440;BMP180;55421;51.600;5.718;2022-12-11T10:00:39;215227.80;;;1.42
68440;BMP180;55421;51.600;5.718;2022-12-11T10:03:55;215226.59;;;1.44
68440;BMP180;55421;51.600;5.718;2022-12-11T10:06:34;215223.41;;;1.40
68440;BMP180;55421;51.600;5.718;2022-12-11T10:09:26;215217.41;;;1.40
68440;BMP180;55421;51.600;5.718;2022-12-11T10:17:39;215178.00;;;1.36
68440;BMP180;55421;51.600;5.718;2022-12-11T10:20:26;215190.41;;;1.40
68440;BMP180;55421;51.600;5.718;2022-12-11T10:22:54;215205.80;;;1.40
68440;BMP180;55421;51.600;5.718;2022-12-11T10:25:31;215213.80;;;1.40
68440;BMP180;55421;51.600;5.718;2022-12-11T10:28:10;215203.41;;;1.40
68440;BMP180;55421;51.600;5.718;2022-12-11T10:30:46;215209.59;;;1.40
68440;BMP180;55421;51.600;5.718;2022-12-11T10:33:22;215196.41;;;1.40
68440;BMP180;55421;51.600;5.718;2022-12-11T10:35:55;215199.20;;;1.40
68440;BMP180;55421;51.600;5.718;2022-12-11T10:38:38;215193.59;;;1.40
68440;BMP180;55421;51.600;5.718;2022-12-11T10:41:23;215205.80;;;1.40
68440;BMP180;55421;51.600;5.718;2022-12-11T10:43:54;215218.59;;;1.40
68440;BMP180;55421;51.600;5.718;2022-12-11T10:46:27;215222.20;;;1.40
68440;BMP180;55421;51.600;5.718;2022-12-11T10:48:58;215253.00;;;1.50
68440;BMP180;55421;51.600;5.718;2022-12-11T10:51:35;215291.00;;;1.52
68440;BMP180;55421;51.600;5.718;2022-12-11T10:54:16;215303.41;;;1.60
68440;BMP180;55421;51.600;5.718;2022-12-11T10:56:53;215314.59;;;1.60
68440;BMP180;55421;51.600;5.718;2022-12-11T10:59:29;215312.59;;;1.60
68440;BMP180;55421;51.600;5.718;2022-12-11T11:01:58;215292.20;;;1.60
68440;BMP180;55421;51.600;5.718;2022-12-11T11:04:36;215283.80;;;1.50
68440;BMP180;55421;51.600;5.718;2022-12-11T11:07:26;215271.00;;;1.50
68440;BMP180;55421;51.600;5.718;2022-12-11T11:12:42;215248.59;;;1.50
68440;BMP180;55421;51.600;5.718;2022-12-11T11:15:21;215273.41;;;1.50
68440;BMP180;55421;51.600;5.718;2022-12-11T11:17:53;215295.00;;;1.60
68440;BMP180;55421;51.600;5.718;2022-12-11T11:20:28;215315.80;;;1.60
68440;BMP180;55421;51.600;5.718;2022-12-11T11:22:59;215309.80;;;1.60
68440;BMP180;55421;51.600;5.718;2022-12-11T11:25:30;215300.20;;;1.60
68440;BMP180;55421;51.600;5.718;2022-12-11T11:28:04;215289.41;;;1.52
68440;BMP180;55421;51.600;5.718;2022-12-11T11:30:38;215276.20;;;1.50
68440;BMP180;55421;51.600;5.718;2022-12-11T11:33:21;215264.59;;;1.50
68440;BMP180;55421;51.600;5.718;2022-12-11T11:35:58;215251.80;;;1.50
68440;BMP180;55421;51.600;5.718;2022-12-11T11:38:46;215245.80;;;1.50
68440;BMP180;55421;51.600;5.718;2022-12-11T11:42:09;215247.00;;;1.50
68440;BMP180;55421;51.600;5.718;2022-12-11T11:44:51;215260.59;;;1.50
68440;BMP180;55421;51.600;5.718;2022-12-11T11:47:36;215279.00;;;1.50
68440;BMP180;55421;51.600;5.718;2022-12-11T11:50:17;215286.59;;;1.56
68440;BMP180;55421;51.600;5.718;2022-12-11T11:52:57;215292.20;;;1.60
68440;BMP180;55421;51.600;5.718;2022-12-11T11:59:10;215267.80;;;1.50
68440;BMP180;55421;51.600;5.718;2022-12-11T12:01:41;215261.00;;;1.50
68440;BMP180;55421;51.600;5.718;2022-12-11T12:04:10;215254.59;;;1.50
68440;BMP180;55421;51.600;5.718;2022-12-11T12:12:57;215249.80;;;1.50
68440;BMP180;55421;51.600;5.718;2022-12-11T12:15:34;215291.00;;;1.56
68440;BMP180;55421;51.600;5.718;2022-12-11T12:18:34;215314.20;;;1.60
68440;BMP180;55421;51.600;5.718;2022-12-11T12:21:33;215354.80;;;1.70
68440;BMP180;55421;51.600;5.718;2022-12-11T12:27:18;215407.41;;;1.80
68440;BMP180;55421;51.600;5.718;2022-12-11T12:30:01;215421.00;;;1.80
68440;BMP180;55421;51.600;5.718;2022-12-11T12:35:37;215426.20;;;1.80
68440;BMP180;55421;51.600;5.718;2022-12-11T12:38:25;215423.80;;;1.80
68440;BMP180;55421;51.600;5.718;2022-12-11T12:41:31;215449.00;;;1.84
68440;BMP180;55421;51.600;5.718;2022-12-11T12:44:16;215498.80;;;1.90
68440;BMP180;55421;51.600;5.718;2022-12-11T12:47:09;215532.80;;;2.00
68440;BMP180;55421;51.600;5.718;2022-12-11T12:49:47;215553.59;;;2.00
68440;BMP180;55421;51.600;5.718;2022-12-11T12:52:21;215564.00;;;2.00
68440;BMP180;55421;51.600;5.718;2022-12-11T12:54:54;215565.59;;;2.00
68440;BMP180;55421;51.600;5.718;2022-12-11T12:57:45;215586.00;;;2.10
68440;BMP180;55421;51.600;5.718;2022-12-11T13:00:29;215599.80;;;2.10
68440;BMP180;55421;51.600;5.718;2022-12-11T13:03:00;215617.41;;;2.10
68440;BMP180;55421;51.600;5.718;2022-12-11T13:05:41;215609.00;;;2.10
68440;BMP180;55421;51.600;5.718;2022-12-11T13:08:10;215606.20;;;2.10
68440;BMP180;55421;51.600;5.718;2022-12-11T13:10:42;215620.59;;;2.12
68440;BMP180;55421;51.600;5.718;2022-12-11T13:13:39;215647.59;;;2.20
68440;BMP180;55421;51.600;5.718;2022-12-11T13:18:44;215694.00;;;2.30
68440;BMP180;55421;51.600;5.718;2022-12-11T13:21:33;215702.41;;;2.30
68440;BMP180;55421;51.600;5.718;2022-12-11T13:26:42;215705.59;;;2.30
68440;BMP180;55421;51.600;5.718;2022-12-11T13:29:47;215690.80;;;2.30
68440;BMP180;55421;51.600;5.718;2022-12-11T13:34:52;215629.41;;;2.20
68440;BMP180;55421;51.600;5.718;2022-12-11T13:37:38;215598.41;;;2.10
68440;BMP180;55421;51.600;5.718;2022-12-11T13:40:17;215564.00;;;2.00
68440;BMP180;55421;51.600;5.718;2022-12-11T13:42:58;215534.41;;;2.00
68440;BMP180;55421;51.600;5.718;2022-12-11T13:47:58;215536.00;;;2.00
68440;BMP180;55421;51.600;5.718;2022-12-11T13:50:30;215536.00;;;2.00
68440;BMP180;55421;51.600;5.718;2022-12-11T13:53:01;215537.20;;;2.00
68440;BMP180;55421;51.600;5.718;2022-12-11T13:55:33;215529.59;;;2.00
68440;BMP180;55421;51.600;5.718;2022-12-11T13:58:00;215536.00;;;2.00
68440;BMP180;55421;51.600;5.718;2022-12-11T14:00:30;215541.20;;;2.00
68440;BMP180;55421;51.600;5.718;2022-12-11T14:03:03;215538.80;;;2.00
68440;BMP180;55421;51.600;5.718;2022-12-11T14:05:34;215517.59;;;1.96
68440;BMP180;55421;51.600;5.718;2022-12-11T14:08:06;215502.80;;;1.90
68440;BMP180;55421;51.600;5.718;2022-12-11T14:10:37;215482.20;;;1.90
68440;BMP180;55421;51.600;5.718;2022-12-11T14:13:17;215481.00;;;1.90
68440;BMP180;55421;51.600;5.718;2022-12-11T14:15:45;215498.80;;;1.90
68440;BMP180;55421;51.600;5.718;2022-12-11T14:18:19;215529.59;;;2.00
68440;BMP180;55421;51.600;5.718;2022-12-11T14:21:00;215524.80;;;2.00
68440;BMP180;55421;51.600;5.718;2022-12-11T14:23:31;215534.41;;;2.00
68440;BMP180;55421;51.600;5.718;2022-12-11T14:26:16;215513.59;;;1.98
68440;BMP180;55421;51.600;5.718;2022-12-11T14:28:43;215498.80;;;1.90
68440;BMP180;55421;51.600;5.718;2022-12-11T14:31:15;215482.20;;;1.90
68440;BMP180;55421;51.600;5.718;2022-12-11T14:33:50;215463.41;;;1.90
68440;BMP180;55421;51.600;5.718;2022-12-11T14:36:19;215441.41;;;1.80
68440;BMP180;55421;51.600;5.718;2022-12-11T14:38:52;215407.80;;;1.80
68440;BMP180;55421;51.600;5.718;2022-12-11T14:41:40;215395.00;;;1.72
68440;BMP180;55421;51.600;5.718;2022-12-11T14:44:14;215402.59;;;1.78
68440;BMP180;55421;51.600;5.718;2022-12-11T14:46:49;215426.59;;;1.80
68440;BMP180;55421;51.600;5.718;2022-12-11T14:52:24;215451.80;;;1.82
68440;BMP180;55421;51.600;5.718;2022-12-11T14:55:08;215451.80;;;1.80
68440;BMP180;55421;51.600;5.718;2022-12-11T14:57:41;215438.59;;;1.80
68440;BMP180;55421;51.600;5.718;2022-12-11T15:05:54;215362.20;;;1.70
68440;BMP180;55421;51.600;5.718;2022-12-11T15:08:27;215332.59;;;1.60
68440;BMP180;55421;51.600;5.718;2022-12-11T15:11:05;215314.20;;;1.60
68440;BMP180;55421;51.600;5.718;2022-12-11T15:13:38;215293.41;;;1.60
68440;BMP180;55421;51.600;5.718;2022-12-11T15:16:06;215295.00;;;1.60
68440;BMP180;55421;51.600;5.718;2022-12-11T15:18:39;215315.80;;;1.60
68440;BMP180;55421;51.600;5.718;2022-12-11T15:21:10;215320.20;;;1.60
68440;BMP180;55421;51.600;5.718;2022-12-11T15:26:18;215309.80;;;1.60
68440;BMP180;55421;51.600;5.718;2022-12-11T15:28:58;215280.59;;;1.52
68440;BMP180;55421;51.600;5.718;2022-12-11T15:31:29;215269.00;;;1.50
68440;BMP180;55421;51.600;5.718;2022-12-11T15:33:56;215250.20;;;1.50
68440;BMP180;55421;51.600;5.718;2022-12-11T15:38:56;215229.41;;;1.42
68440;BMP180;55421;51.600;5.718;2022-12-11T15:41:24;215216.41;;;1.40
68440;BMP180;55421;51.600;5.718;2022-12-11T15:43:55;215194.80;;;1.40